Hovedside
METAR-TAF:

METAR-TAF

Lufthavner :

Brønnøysund, Norge

Brønnøysund lufthavn. Brønnøy

breddegrad: 65-28N, lengdegrad: 012-13E, høyde over havet: 0 m

Gjeldene værobservasjon

Denne rapporten ble laget for 36 minutter siden, klokken 06:50 UTC
Vind 14 kt fra Vest-sørvest
Temperatur 5°C
Luftfuktighet 100%
Trykk 999 hPa
Sikt: 9000 m
Brutte skyer i en høyde av 600 ft
lett regn

METAR: ENBN 210650Z 24014KT 9000 -RA BKN006 05/05 Q0999

Tid: 09:26 (07:26 UTC)

Varsel

Denne rapporten ble laget for 2 timer og 26 minutter siden, klokken 05:00 UTC
Varsel gyldig fra 21. klokken 06 UTC til 21. klokken 15 UTC
Vind 15 kt fra Sørvest
Sikt 10 km eller mer
Spredte skyer i en høyde av 700 ft
Brutte skyer i en høyde av 1500 ft
lett regn
Midlertidig
fra 21. klokken 06 UTC til 21. klokken 15 UTC
Sikt: 4000 m
Brutte skyer i en høyde av 600 ft
regnbyger

TAF: ENBN 210500Z 2106/2115 23015KT 9999 -RA SCT007 BKN015 TEMPO 2106/2115 4000 SHRA BKN006

Værobservasjoner og værvarsel for over 4000 flyplasser (METAR- og TAF-rapporter).

Tilgjengelige stasjoner er representert av de røde og gule prikkene på kartet.

Hold musepekeren over prikken for å se navnet på stasjonen.

Klikk så for å se værobservasjoner og -varsler.

For å forandre kartet kan du klikke på den grønne knappen med svart kryss for å zoome inn, på den grønne knappen med strek for å zoome ut, eller på de grønne pilene for å se tilstøtende kart.


METAR-TAF: